Time;durP1;ratioP1;P1;durP2;ratioP2;P2;SDS_P1;SDS_P2;PMS_P1;PMS_P2;Temp;Humidity;BMP_temperature;BMP_pressure;BME280_temperature;BME280_humidity;BME280_pressure;Samples;Min_cycle;Max_cycle;Signal;HPM_P1;HPM_P2
2021/09/26 00:01:03;;;;;;;19.65;16.58;;;17.70;97.00;;;;;;4856037;29;20056;-66
2021/09/26 00:03:31;;;;;;;26.85;18.05;;;17.70;97.00;;;;;;4855571;29;20049;-65
2021/09/26 00:05:57;;;;;;;25.08;17.85;;;17.70;97.00;;;;;;4851805;29;20052;-66
2021/09/26 00:08:22;;;;;;;22.67;17.90;;;17.70;97.00;;;;;;4866380;29;20167;-66
2021/09/26 00:10:48;;;;;;;23.80;18.55;;;17.70;97.00;;;;;;4854999;29;20052;-66
2021/09/26 00:13:14;;;;;;;27.60;19.35;;;17.70;97.00;;;;;;4865123;29;20057;-66
2021/09/26 00:15:39;;;;;;;25.75;19.00;;;17.70;97.10;;;;;;4850202;29;20059;-65
2021/09/26 00:18:05;;;;;;;21.45;19.10;;;17.70;97.10;;;;;;4850441;29;20047;-66
2021/09/26 00:20:31;;;;;;;23.65;18.25;;;17.70;97.20;;;;;;4849202;29;20478;-66
2021/09/26 00:22:57;;;;;;;23.77;19.08;;;17.70;97.20;;;;;;4856239;29;20038;-65
2021/09/26 00:25:23;;;;;;;22.40;18.70;;;17.70;97.20;;;;;;4868668;29;20093;-65
2021/09/26 00:27:49;;;;;;;28.30;19.52;;;17.70;97.20;;;;;;4849665;29;20461;-66
2021/09/26 00:30:15;;;;;;;25.88;19.65;;;17.70;97.30;;;;;;4866124;29;20490;-65
2021/09/26 00:32:45;;;;;;;27.00;22.30;;;17.70;97.40;;;;;;4854128;29;20447;-65
2021/09/26 00:35:11;;;;;;;29.27;20.95;;;17.70;97.40;;;;;;4854929;29;20044;-65
2021/09/26 00:37:37;;;;;;;23.13;18.77;;;17.70;97.40;;;;;;4854736;29;22197;-65
2021/09/26 00:40:05;;;;;;;25.73;20.15;;;17.70;97.50;;;;;;4866137;29;20414;-65
2021/09/26 00:42:32;;;;;;;30.70;20.60;;;17.70;97.50;;;;;;4850890;29;20049;-65
2021/09/26 00:44:58;;;;;;;25.95;20.02;;;17.70;97.50;;;;;;4855658;29;20057;-65
2021/09/26 00:47:25;;;;;;;28.42;20.50;;;17.70;97.50;;;;;;4848980;29;20077;-65
2021/09/26 00:49:52;;;;;;;28.60;21.38;;;17.70;97.50;;;;;;4848502;29;20074;-65
2021/09/26 00:52:19;;;;;;;24.35;20.33;;;17.70;97.50;;;;;;4854119;29;20164;-65
2021/09/26 00:54:45;;;;;;;32.00;22.02;;;17.70;97.40;;;;;;4849776;29;20052;-65
2021/09/26 00:57:10;;;;;;;33.75;23.08;;;17.70;97.60;;;;;;4854370;29;20041;-65
2021/09/26 00:59:36;;;;;;;28.58;22.48;;;17.70;97.60;;;;;;4849697;29;20049;-65
2021/09/26 01:02:02;;;;;;;26.88;21.83;;;17.60;97.60;;;;;;4853960;29;20148;-65
2021/09/26 01:04:29;;;;;;;27.10;21.67;;;17.60;97.60;;;;;;4854553;29;20105;-65
2021/09/26 01:07:05;;;;;;;30.88;22.50;;;17.60;97.70;;;;;;4832603;29;20209;-65
2021/09/26 01:09:39;;;;;;;29.45;23.35;;;17.60;97.80;;;;;;4848328;29;20506;-65
2021/09/26 01:12:48;;;;;;;27.90;22.48;;;17.60;97.80;;;;;;4854258;29;20057;-65
2021/09/26 01:15:48;;;;;;;27.00;21.75;;;17.60;97.70;;;;;;4838573;29;20518;-65
2021/09/26 01:18:19;;;;;;;31.42;21.02;;;17.60;97.90;;;;;;4863418;29;20076;-65
2021/09/26 01:21:30;;;;;;;31.63;21.20;;;17.50;97.90;;;;;;4854676;29;21008;-65
2021/09/26 01:24:19;;;;;;;32.30;20.85;;;17.60;97.80;;;;;;4851218;29;20065;-65
2021/09/26 01:27:25;;;;;;;29.90;22.50;;;17.60;97.80;;;;;;4849052;29;20053;-65
2021/09/26 01:30:22;;;;;;;26.77;21.50;;;17.60;97.80;;;;;;4837653;29;20512;-66
2021/09/26 01:33:04;;;;;;;27.67;21.67;;;17.60;97.80;;;;;;4839127;29;22292;-66
2021/09/26 01:35:31;;;;;;;33.25;23.60;;;17.60;97.90;;;;;;4865157;29;20045;-67
2021/09/26 01:38:38;;;;;;;29.42;23.70;;;17.60;97.90;;;;;;4848436;29;20063;-65
2021/09/26 01:41:48;;;;;;;30.38;23.02;;;17.70;97.70;;;;;;4833548;29;20529;-66
2021/09/26 01:44:27;;;;;;;30.60;22.92;;;17.70;97.70;;;;;;4843253;29;20138;-65
2021/09/26 01:46:55;;;;;;;34.47;24.25;;;17.60;97.80;;;;;;4853795;29;20497;-66
2021/09/26 01:49:33;;;;;;;31.58;23.77;;;17.70;97.70;;;;;;4849204;29;20112;-66
2021/09/26 01:52:00;;;;;;;37.08;23.98;;;17.70;97.60;;;;;;4854223;29;20052;-65
2021/09/26 01:54:26;;;;;;;33.95;24.40;;;17.70;97.60;;;;;;4848775;29;20100;-67
2021/09/26 01:56:53;;;;;;;30.52;24.42;;;17.80;97.50;;;;;;4847697;29;20062;-67
2021/09/26 01:59:22;;;;;;;33.67;24.02;;;17.70;97.40;;;;;;4854199;29;20049;-66
2021/09/26 02:01:48;;;;;;;33.30;22.70;;;17.80;97.40;;;;;;4850230;29;20085;-66
2021/09/26 02:04:17;;;;;;;34.58;23.52;;;17.80;97.30;;;;;;4853178;29;20179;-65
2021/09/26 02:06:44;;;;;;;32.35;22.23;;;17.70;97.30;;;;;;4848384;29;20061;-65
2021/09/26 02:09:18;;;;;;;34.60;21.95;;;17.70;97.30;;;;;;4838903;29;20076;-67
2021/09/26 02:11:45;;;;;;;28.38;20.95;;;17.70;97.20;;;;;;4837055;29;20528;-65
2021/09/26 02:14:12;;;;;;;26.55;20.20;;;17.70;97.20;;;;;;4847804;29;20069;-65
2021/09/26 02:16:39;;;;;;;27.80;20.98;;;17.70;97.20;;;;;;4847321;29;20045;-66
2021/09/26 02:19:07;;;;;;;25.35;19.23;;;17.70;97.20;;;;;;4848471;29;20105;-65
2021/09/26 02:21:33;;;;;;;28.50;19.08;;;17.70;97.20;;;;;;4854152;29;20387;-65
2021/09/26 02:24:01;;;;;;;23.35;18.70;;;17.70;97.10;;;;;;4846333;29;20097;-65
2021/09/26 02:26:28;;;;;;;30.08;18.15;;;17.70;97.10;;;;;;4847565;29;20052;-65
2021/09/26 02:28:54;;;;;;;22.95;17.55;;;17.70;96.90;;;;;;4849483;29;20041;-65
2021/09/26 02:31:20;;;;;;;24.70;18.48;;;17.70;96.80;;;;;;4848901;29;20060;-65
2021/09/26 02:33:45;;;;;;;26.60;18.42;;;17.70;96.70;;;;;;4852304;29;20072;-65
2021/09/26 02:36:13;;;;;;;27.70;18.25;;;17.70;96.60;;;;;;4847802;29;20033;-66
2021/09/26 02:38:40;;;;;;;27.70;17.75;;;17.70;96.50;;;;;;4838324;29;20599;-66
2021/09/26 02:41:22;;;;;;;23.88;17.08;;;17.70;96.40;;;;;;4853330;29;20044;-66
2021/09/26 02:44:00;;;;;;;22.27;15.50;;;17.70;96.30;;;;;;4848891;29;20076;-66
2021/09/26 02:46:37;;;;;;;26.20;17.77;;;17.70;96.40;;;;;;4862849;29;20065;-66
2021/09/26 02:49:05;;;;;;;24.63;16.65;;;17.60;96.30;;;;;;4847874;29;20051;-65
2021/09/26 02:51:31;;;;;;;24.65;17.10;;;17.70;96.30;;;;;;4864709;29;20486;-65
2021/09/26 02:53:58;;;;;;;25.00;17.00;;;17.60;96.30;;;;;;4852322;29;20089;-65
2021/09/26 02:56:26;;;;;;;20.75;15.52;;;17.60;96.40;;;;;;4864629;29;20137;-66
2021/09/26 02:58:53;;;;;;;25.33;16.02;;;17.50;96.50;;;;;;4848506;29;20053;-66
2021/09/26 03:01:19;;;;;;;22.90;16.85;;;17.50;96.60;;;;;;4859165;29;20041;-66
2021/09/26 03:03:44;;;;;;;22.33;17.95;;;17.50;96.70;;;;;;4852684;29;20052;-67
2021/09/26 03:06:10;;;;;;;23.52;18.05;;;17.50;96.80;;;;;;4852487;29;20067;-66
2021/09/26 03:08:36;;;;;;;27.77;19.45;;;17.50;96.80;;;;;;4846251;29;20059;-68
2021/09/26 03:11:02;;;;;;;27.70;19.23;;;17.50;96.80;;;;;;4863080;29;20052;-68
2021/09/26 03:13:28;;;;;;;30.27;19.67;;;17.50;96.70;;;;;;4863355;29;20573;-67
2021/09/26 03:15:54;;;;;;;26.10;19.48;;;17.60;96.70;;;;;;4846942;29;20049;-69
2021/09/26 03:18:21;;;;;;;26.40;19.52;;;17.60;96.70;;;;;;4864727;29;20045;-69
2021/09/26 03:20:47;;;;;;;25.80;19.13;;;17.60;96.70;;;;;;4865077;29;20132;-69
2021/09/26 03:23:12;;;;;;;28.65;19.58;;;17.60;96.80;;;;;;4846405;29;20141;-68
2021/09/26 03:25:39;;;;;;;25.13;18.60;;;17.60;96.80;;;;;;4865957;29;20047;-68
2021/09/26 03:28:05;;;;;;;25.20;19.25;;;17.60;96.70;;;;;;4851956;29;20049;-68
2021/09/26 03:30:31;;;;;;;27.33;19.63;;;17.60;96.70;;;;;;4866247;29;20375;-66
2021/09/26 03:32:56;;;;;;;24.52;18.95;;;17.60;96.60;;;;;;4855799;29;20097;-67
2021/09/26 03:35:22;;;;;;;25.55;20.00;;;17.60;96.60;;;;;;4856337;29;20405;-68
2021/09/26 03:37:48;;;;;;;26.92;19.27;;;17.60;96.60;;;;;;4850910;29;20052;-67
2021/09/26 03:40:14;;;;;;;25.88;19.80;;;17.50;96.70;;;;;;4869704;29;20045;-68
2021/09/26 03:42:41;;;;;;;27.98;19.40;;;17.50;96.80;;;;;;4839904;29;20406;-68
2021/09/26 03:45:09;;;;;;;27.67;19.48;;;17.50;96.90;;;;;;4866804;29;20064;-67
2021/09/26 03:47:35;;;;;;;24.88;19.17;;;17.50;96.90;;;;;;4850851;29;20056;-67
2021/09/26 03:50:03;;;;;;;26.92;20.13;;;17.50;96.90;;;;;;4851248;29;20054;-67
2021/09/26 03:52:29;;;;;;;28.73;20.27;;;17.50;96.90;;;;;;4852159;29;20063;-67
2021/09/26 03:54:55;;;;;;;28.45;20.05;;;17.50;96.90;;;;;;4866402;29;20544;-68
2021/09/26 03:57:21;;;;;;;39.15;21.33;;;17.50;96.90;;;;;;4867590;29;20041;-68
2021/09/26 03:59:47;;;;;;;25.85;20.85;;;17.50;96.80;;;;;;4851661;29;20626;-67
2021/09/26 04:02:13;;;;;;;27.15;19.52;;;17.50;96.80;;;;;;4846674;29;20047;-67
2021/09/26 04:04:39;;;;;;;28.45;20.83;;;17.50;96.80;;;;;;4850538;29;20490;-67
2021/09/26 04:07:05;;;;;;;30.50;21.75;;;17.50;96.70;;;;;;4850482;29;20052;-67
2021/09/26 04:09:30;;;;;;;27.83;20.58;;;17.50;96.80;;;;;;4867911;29;20033;-67
2021/09/26 04:11:56;;;;;;;25.80;20.20;;;17.50;96.90;;;;;;4849541;29;20552;-64
2021/09/26 04:14:22;;;;;;;28.55;20.13;;;17.50;96.90;;;;;;4847387;29;20053;-64
2021/09/26 04:16:49;;;;;;;25.80;21.08;;;17.50;96.90;;;;;;4858028;29;20069;-69
2021/09/26 04:19:16;;;;;;;28.48;20.23;;;17.50;96.90;;;;;;4849469;29;20041;-70
2021/09/26 04:21:43;;;;;;;27.10;20.45;;;17.40;96.90;;;;;;4848771;29;20052;-70
2021/09/26 04:24:10;;;;;;;25.58;20.08;;;17.40;97.00;;;;;;4849939;29;20041;-70
2021/09/26 04:26:36;;;;;;;30.92;20.67;;;17.30;97.00;;;;;;4851063;29;20048;-70
2021/09/26 04:29:01;;;;;;;29.70;21.23;;;17.30;97.00;;;;;;4848339;29;20049;-70
2021/09/26 04:31:27;;;;;;;25.75;19.02;;;17.30;97.00;;;;;;4866038;29;20124;-71
2021/09/26 04:33:53;;;;;;;24.95;19.58;;;17.20;97.00;;;;;;4854781;29;20048;-70
2021/09/26 04:36:18;;;;;;;23.55;19.35;;;17.20;97.00;;;;;;4855090;29;20040;-70
2021/09/26 04:38:44;;;;;;;29.40;20.67;;;17.20;97.10;;;;;;4854602;29;20045;-70
2021/09/26 04:41:10;;;;;;;26.83;20.58;;;17.10;97.10;;;;;;4865143;29;20075;-70
2021/09/26 04:43:36;;;;;;;25.50;20.35;;;17.10;97.20;;;;;;4854576;29;20053;-70
2021/09/26 04:46:01;;;;;;;22.48;19.25;;;17.10;97.20;;;;;;4838577;29;20460;-69
2021/09/26 04:48:27;;;;;;;26.65;20.52;;;17.00;97.20;;;;;;4836111;29;20041;-70
2021/09/26 04:50:53;;;;;;;22.52;18.85;;;17.00;97.20;;;;;;4854862;29;20049;-70
2021/09/26 04:53:19;;;;;;;25.80;18.75;;;17.00;97.30;;;;;;4866380;29;20044;-71
2021/09/26 04:55:44;;;;;;;24.95;19.10;;;16.90;97.40;;;;;;4855228;29;20053;-70
2021/09/26 04:58:10;;;;;;;23.15;19.95;;;16.90;97.40;;;;;;4834420;29;20128;-70
2021/09/26 05:00:37;;;;;;;27.30;19.42;;;16.90;97.40;;;;;;4834865;29;20044;-70
2021/09/26 05:03:03;;;;;;;23.90;18.55;;;16.90;97.40;;;;;;4840302;29;20057;-65
2021/09/26 05:05:29;;;;;;;23.83;18.33;;;16.90;97.40;;;;;;4851093;29;20036;-65
2021/09/26 05:07:54;;;;;;;26.17;18.98;;;16.90;97.30;;;;;;4854555;29;20562;-65
2021/09/26 05:10:20;;;;;;;22.20;19.83;;;16.90;97.30;;;;;;4849056;29;20128;-70
2021/09/26 05:12:46;;;;;;;26.30;18.10;;;16.90;97.30;;;;;;4854674;29;20040;-70
2021/09/26 05:15:12;;;;;;;22.42;18.58;;;16.90;97.30;;;;;;4849498;29;20049;-69
2021/09/26 05:17:38;;;;;;;24.10;19.30;;;16.90;97.30;;;;;;4838579;29;20116;-70
2021/09/26 05:20:05;;;;;;;24.90;19.90;;;16.90;97.30;;;;;;4854356;29;20506;-70
2021/09/26 05:22:31;;;;;;;24.70;20.48;;;16.90;97.30;;;;;;4838589;29;20409;-70
2021/09/26 05:24:57;;;;;;;24.17;20.40;;;16.90;97.30;;;;;;4864848;29;20053;-70
2021/09/26 05:27:23;;;;;;;22.77;19.00;;;16.90;97.30;;;;;;4864488;29;20500;-69
2021/09/26 05:29:50;;;;;;;25.25;20.52;;;16.90;97.30;;;;;;4849244;29;20060;-69
2021/09/26 05:32:16;;;;;;;27.20;19.92;;;16.90;97.30;;;;;;4849880;29;20048;-69
2021/09/26 05:34:41;;;;;;;21.08;18.55;;;16.90;97.30;;;;;;4854634;29;20541;-68
2021/09/26 05:37:07;;;;;;;22.95;18.95;;;16.80;97.30;;;;;;4849065;29;20502;-69
2021/09/26 05:39:33;;;;;;;24.27;20.02;;;16.80;97.30;;;;;;4833425;29;20045;-70
2021/09/26 05:42:03;;;;;;;26.90;19.63;;;16.80;97.30;;;;;;4849597;29;20125;-70
2021/09/26 05:44:34;;;;;;;23.10;18.13;;;16.80;97.40;;;;;;4849636;29;20127;-64
2021/09/26 05:47:00;;;;;;;20.38;18.15;;;16.70;97.40;;;;;;4862626;29;20056;-62
2021/09/26 05:49:26;;;;;;;23.70;18.35;;;16.70;97.50;;;;;;4864905;29;20076;-64
2021/09/26 05:51:52;;;;;;;22.83;17.63;;;16.70;97.50;;;;;;4866735;29;20076;-64
2021/09/26 05:54:19;;;;;;;21.73;17.33;;;16.70;97.50;;;;;;4848690;29;20404;-69
2021/09/26 05:56:45;;;;;;;21.45;17.67;;;16.60;97.50;;;;;;4838997;29;20053;-70
2021/09/26 05:59:11;;;;;;;22.00;17.83;;;16.60;97.50;;;;;;4848239;29;20093;-69
2021/09/26 06:01:36;;;;;;;22.98;17.75;;;16.60;97.50;;;;;;4849005;29;20033;-69
2021/09/26 06:04:02;;;;;;;21.23;17.70;;;16.70;97.50;;;;;;4848371;29;20046;-69
2021/09/26 06:06:28;;;;;;;21.60;17.63;;;16.60;97.50;;;;;;4852588;29;20037;-69
2021/09/26 06:08:53;;;;;;;22.58;17.67;;;16.60;97.40;;;;;;4848546;29;20097;-70
2021/09/26 06:11:19;;;;;;;24.13;18.40;;;16.70;97.40;;;;;;4865791;29;20051;-70
2021/09/26 06:13:45;;;;;;;25.13;19.42;;;16.70;97.40;;;;;;4847582;29;20144;-70
2021/09/26 06:16:11;;;;;;;20.63;18.15;;;16.70;97.40;;;;;;4848826;29;21006;-69
2021/09/26 06:18:36;;;;;;;25.55;18.05;;;16.70;97.30;;;;;;4848744;29;20131;-70
2021/09/26 06:21:02;;;;;;;22.92;17.15;;;16.70;97.30;;;;;;4848504;29;20045;-70
2021/09/26 06:23:28;;;;;;;22.92;17.33;;;16.70;97.20;;;;;;4852977;29;20056;-71
2021/09/26 06:25:54;;;;;;;26.00;18.83;;;16.80;97.20;;;;;;4864674;29;20037;-70
2021/09/26 06:28:22;;;;;;;24.05;18.55;;;16.80;97.10;;;;;;4837399;29;20112;-72
2021/09/26 06:30:48;;;;;;;19.77;17.35;;;16.90;97.00;;;;;;4853834;29;20089;-70
2021/09/26 06:33:14;;;;;;;19.45;16.63;;;16.90;96.90;;;;;;4847894;29;20442;-71
2021/09/26 06:35:39;;;;;;;22.40;16.95;;;17.00;96.80;;;;;;4849418;29;20401;-67
2021/09/26 06:38:05;;;;;;;20.40;17.88;;;17.00;96.70;;;;;;4864282;29;20049;-67
2021/09/26 06:40:32;;;;;;;21.60;17.60;;;17.10;96.60;;;;;;4865357;29;20486;-61
2021/09/26 06:42:59;;;;;;;21.05;17.33;;;17.10;96.60;;;;;;4849587;29;20080;-62
2021/09/26 06:45:25;;;;;;;20.60;17.23;;;17.20;96.40;;;;;;4854069;29;20607;-60
2021/09/26 06:47:50;;;;;;;21.08;16.75;;;17.30;96.30;;;;;;4864543;29;20056;-61
2021/09/26 06:50:16;;;;;;;20.55;16.45;;;17.30;96.20;;;;;;4853307;29;20498;-61
2021/09/26 06:52:42;;;;;;;23.23;17.75;;;17.40;96.00;;;;;;4846345;29;20037;-61
2021/09/26 06:55:08;;;;;;;20.63;16.88;;;17.60;95.70;;;;;;4864039;29;20486;-61
2021/09/26 06:57:34;;;;;;;22.85;16.77;;;17.70;95.50;;;;;;4864034;29;20033;-61
2021/09/26 07:00:00;;;;;;;19.88;16.73;;;17.80;95.30;;;;;;4867956;29;20043;-61
2021/09/26 07:02:27;;;;;;;21.65;17.13;;;17.80;94.90;;;;;;4866598;29;20747;-62
2021/09/26 07:04:55;;;;;;;21.00;17.33;;;17.90;94.70;;;;;;4850526;29;20914;-60
2021/09/26 07:07:23;;;;;;;24.33;17.70;;;18.10;94.60;;;;;;4867606;29;20095;-60
2021/09/26 07:09:52;;;;;;;22.90;16.73;;;18.20;94.30;;;;;;4852660;29;20414;-60
2021/09/26 07:12:19;;;;;;;18.67;16.77;;;18.10;94.00;;;;;;4855349;29;20130;-60
2021/09/26 07:14:45;;;;;;;19.88;15.73;;;18.20;93.80;;;;;;4867308;29;20062;-61
2021/09/26 07:17:11;;;;;;;19.38;16.20;;;18.30;93.80;;;;;;4867349;29;20048;-60
2021/09/26 07:19:39;;;;;;;19.20;15.02;;;18.40;93.80;;;;;;4867743;29;20118;-61
2021/09/26 07:22:05;;;;;;;17.80;15.73;;;18.50;93.60;;;;;;4867894;29;20044;-61
2021/09/26 07:24:31;;;;;;;16.45;14.45;;;18.60;93.20;;;;;;4866903;29;20040;-60
2021/09/26 07:26:57;;;;;;;16.88;14.82;;;18.60;92.90;;;;;;4867128;29;20435;-62
2021/09/26 07:29:23;;;;;;;16.13;14.45;;;18.60;93.00;;;;;;4867288;29;20048;-63
2021/09/26 07:31:48;;;;;;;17.38;15.40;;;18.60;92.80;;;;;;4865506;29;20133;-62
2021/09/26 07:34:35;;;;;;;16.38;13.93;;;18.70;92.90;;;;;;4867463;29;20057;-65
2021/09/26 07:37:05;;;;;;;16.05;14.38;;;18.80;92.80;;;;;;4851225;29;20172;-70
2021/09/26 07:39:31;;;;;;;15.27;13.10;;;18.90;92.70;;;;;;4867436;29;20084;-67
2021/09/26 07:41:56;;;;;;;16.48;13.45;;;19.00;92.50;;;;;;4850065;29;20073;-65
2021/09/26 07:44:25;;;;;;;14.40;12.90;;;19.10;92.10;;;;;;4856319;29;20049;-65
2021/09/26 07:46:51;;;;;;;15.65;11.98;;;19.20;91.60;;;;;;4840288;29;20473;-64
2021/09/26 07:49:17;;;;;;;17.33;13.25;;;19.20;91.50;;;;;;4849246;29;20143;-66
2021/09/26 07:51:43;;;;;;;15.75;14.02;;;19.30;91.70;;;;;;4849709;29;20057;-66
2021/09/26 07:54:18;;;;;;;14.73;13.18;;;19.50;91.40;;;;;;4846938;29;20055;-67
2021/09/26 07:56:44;;;;;;;13.63;12.00;;;19.60;91.30;;;;;;4826119;29;20040;-66
2021/09/26 07:59:10;;;;;;;15.52;12.75;;;19.70;90.90;;;;;;4850072;29;20049;-67
2021/09/26 08:01:36;;;;;;;17.92;12.73;;;19.80;90.50;;;;;;4850038;29;20490;-64
2021/09/26 08:04:02;;;;;;;16.25;12.98;;;19.90;90.40;;;;;;4854966;29;20085;-65
2021/09/26 08:06:31;;;;;;;15.60;12.23;;;19.90;90.00;;;;;;4835908;29;20074;-67
2021/09/26 08:08:57;;;;;;;17.25;12.35;;;19.90;89.60;;;;;;4850468;29;20049;-67
2021/09/26 08:11:23;;;;;;;14.10;12.23;;;19.90;90.00;;;;;;4849403;29;20056;-67
2021/09/26 08:13:49;;;;;;;15.77;12.43;;;19.90;89.70;;;;;;4833815;29;20057;-67
2021/09/26 08:16:16;;;;;;;15.38;12.90;;;19.90;89.60;;;;;;4851043;29;20049;-64
2021/09/26 08:18:42;;;;;;;13.00;11.60;;;19.90;89.80;;;;;;4840010;29;20033;-65
2021/09/26 08:21:07;;;;;;;16.42;12.18;;;20.10;89.80;;;;;;4855735;29;20063;-70
2021/09/26 08:23:33;;;;;;;14.90;12.45;;;20.20;89.40;;;;;;4855118;29;20040;-71
2021/09/26 08:25:59;;;;;;;15.35;12.23;;;20.30;88.60;;;;;;4845040;29;20062;-71
2021/09/26 08:28:25;;;;;;;15.02;11.23;;;20.40;87.90;;;;;;4861555;29;20053;-70
2021/09/26 08:30:51;;;;;;;13.55;11.45;;;20.40;88.30;;;;;;4857660;29;20080;-72
2021/09/26 08:33:16;;;;;;;14.50;11.80;;;20.50;88.30;;;;;;4842980;29;20047;-71
2021/09/26 08:35:42;;;;;;;14.43;11.18;;;20.70;87.70;;;;;;4854212;29;20037;-72
2021/09/26 08:38:08;;;;;;;13.05;10.85;;;20.70;86.90;;;;;;4855011;29;20040;-72
2021/09/26 08:40:34;;;;;;;13.13;11.70;;;20.80;86.80;;;;;;4857820;29;21063;-73
2021/09/26 08:43:00;;;;;;;12.32;11.05;;;20.80;86.70;;;;;;4859666;29;20049;-73
2021/09/26 08:45:26;;;;;;;13.25;11.85;;;20.90;86.10;;;;;;4840014;29;20041;-71
2021/09/26 08:47:52;;;;;;;13.05;11.15;;;21.00;85.60;;;;;;4852181;29;20081;-72
2021/09/26 08:50:23;;;;;;;14.63;12.25;;;21.00;85.80;;;;;;4839889;29;20108;-72
2021/09/26 08:52:49;;;;;;;15.45;11.63;;;21.10;86.00;;;;;;4855245;29;20118;-69
2021/09/26 08:55:15;;;;;;;12.20;10.90;;;21.40;85.60;;;;;;4865818;29;20039;-68
2021/09/26 08:57:41;;;;;;;11.75;10.55;;;21.50;84.70;;;;;;4847460;29;20402;-69
2021/09/26 09:00:13;;;;;;;13.82;11.13;;;21.60;84.30;;;;;;4867556;29;20124;-69
2021/09/26 09:02:38;;;;;;;15.07;11.65;;;21.60;84.00;;;;;;4849896;29;20059;-69
2021/09/26 09:05:06;;;;;;;14.88;11.15;;;21.70;83.60;;;;;;4849012;29;20049;-62
2021/09/26 09:07:32;;;;;;;13.30;11.68;;;21.70;83.70;;;;;;4850208;29;20040;-61
2021/09/26 09:10:00;;;;;;;14.50;12.13;;;21.70;83.10;;;;;;4853680;29;20053;-61
2021/09/26 09:12:36;;;;;;;12.32;11.02;;;21.70;83.60;;;;;;4864324;29;20052;-61
2021/09/26 09:15:06;;;;;;;13.55;11.68;;;21.60;83.10;;;;;;4849898;29;20482;-62
2021/09/26 09:17:34;;;;;;;13.75;12.35;;;21.60;83.00;;;;;;4848776;29;20513;-61
2021/09/26 09:20:15;;;;;;;16.27;11.52;;;21.60;82.60;;;;;;4849873;29;20053;-63
2021/09/26 09:22:42;;;;;;;14.88;11.75;;;21.60;82.70;;;;;;4847582;29;20506;-66
2021/09/26 09:25:27;;;;;;;14.82;11.15;;;21.50;83.00;;;;;;4849613;29;20109;-63
2021/09/26 09:27:55;;;;;;;23.15;17.42;;;21.50;82.60;;;;;;4848896;29;20061;-64
2021/09/26 09:30:33;;;;;;;11.20;9.90;;;21.50;82.30;;;;;;4834294;29;20128;-64
2021/09/26 09:32:59;;;;;;;11.73;10.40;;;21.40;82.70;;;;;;4854449;29;20048;-65
2021/09/26 09:35:28;;;;;;;13.38;11.10;;;21.50;83.20;;;;;;4848615;29;20049;-64
2021/09/26 09:37:55;;;;;;;13.02;10.82;;;21.60;82.30;;;;;;4848892;29;20053;-64
2021/09/26 09:40:21;;;;;;;11.73;10.30;;;21.70;81.60;;;;;;4832484;29;20053;-64
2021/09/26 09:42:55;;;;;;;11.93;10.75;;;21.70;81.70;;;;;;4854068;29;20127;-64
2021/09/26 09:45:36;;;;;;;12.73;10.50;;;21.70;81.30;;;;;;5127024;27;20437;-63
2021/09/26 09:48:18;;;;;;;11.88;10.68;;;21.70;81.00;;;;;;5128225;27;20047;-64
2021/09/26 09:51:00;;;;;;;12.43;10.10;;;21.70;80.50;;;;;;5116182;27;20502;-69
2021/09/26 09:53:34;;;;;;;18.27;11.63;;;21.70;81.20;;;;;;5126230;27;20469;-72
2021/09/26 09:56:05;;;;;;;14.10;10.82;;;21.80;81.70;;;;;;5157240;27;20072;-71
2021/09/26 09:58:34;;;;;;;11.23;10.00;;;21.80;81.20;;;;;;5124806;27;20058;-72
2021/09/26 10:01:01;;;;;;;14.05;10.55;;;21.80;80.90;;;;;;5126048;27;20045;-71
2021/09/26 10:03:36;;;;;;;12.27;11.00;;;21.90;81.30;;;;;;5099623;27;20044;-63
2021/09/26 10:06:17;;;;;;;12.80;10.48;;;21.90;80.60;;;;;;5115110;27;20067;-63
2021/09/26 10:08:44;;;;;;;11.77;9.98;;;21.80;80.90;;;;;;5120254;27;20047;-63
2021/09/26 10:11:10;;;;;;;15.43;10.73;;;21.80;80.70;;;;;;5119619;27;20506;-66
2021/09/26 10:13:36;;;;;;;11.75;10.55;;;21.70;79.70;;;;;;5119967;27;20053;-64
2021/09/26 10:16:08;;;;;;;11.55;10.35;;;21.50;79.70;;;;;;5120122;27;20788;-62
2021/09/26 10:18:36;;;;;;;12.50;11.23;;;21.30;80.30;;;;;;5122605;27;20036;-61
2021/09/26 10:21:04;;;;;;;14.07;10.95;;;21.10;80.90;;;;;;5114426;27;20045;-63
2021/09/26 10:23:30;;;;;;;12.80;11.48;;;21.00;81.40;;;;;;5122836;27;20095;-63
2021/09/26 10:25:57;;;;;;;15.85;12.43;;;20.90;81.50;;;;;;5095883;28;20118;-63
2021/09/26 10:28:30;;;;;;;19.40;13.02;;;20.80;82.00;;;;;;5119520;27;20090;-63
2021/09/26 10:30:59;;;;;;;12.82;11.45;;;20.70;82.50;;;;;;5119648;27;20031;-63
2021/09/26 10:33:26;;;;;;;13.48;11.65;;;20.60;82.70;;;;;;5108201;27;20114;-64
2021/09/26 10:35:53;;;;;;;16.85;12.52;;;20.50;83.10;;;;;;5118273;27;20070;-63
2021/09/26 10:38:20;;;;;;;14.75;12.40;;;20.40;83.40;;;;;;5112742;27;20040;-64
2021/09/26 10:40:46;;;;;;;12.77;11.32;;;20.40;83.80;;;;;;5096732;27;20043;-64
2021/09/26 10:43:28;;;;;;;15.77;12.45;;;20.40;84.70;;;;;;5120919;27;20397;-69
2021/09/26 10:46:18;;;;;;;14.65;11.35;;;20.40;84.40;;;;;;5124108;27;20056;-71
2021/09/26 10:48:56;;;;;;;16.13;11.35;;;20.40;84.50;;;;;;5095262;27;20088;-71
2021/09/26 10:51:52;;;;;;;13.73;10.93;;;20.40;84.90;;;;;;5122865;27;20150;-70
2021/09/26 10:54:47;;;;;;;14.07;11.10;;;20.60;84.60;;;;;;5118072;27;20043;-69
2021/09/26 10:57:13;;;;;;;13.40;11.48;;;20.70;83.90;;;;;;5096161;27;20072;-69
2021/09/26 10:59:43;;;;;;;16.08;11.63;;;20.70;83.30;;;;;;5097532;27;20047;-72
2021/09/26 11:02:21;;;;;;;16.30;11.23;;;20.80;83.20;;;;;;5090135;27;20939;-71
2021/09/26 11:04:48;;;;;;;15.18;11.02;;;20.70;82.60;;;;;;5109413;27;20095;-67
2021/09/26 11:07:17;;;;;;;13.20;10.95;;;20.60;82.00;;;;;;5082187;27;20036;-66
2021/09/26 11:09:57;;;;;;;14.98;11.70;;;20.60;81.90;;;;;;5101031;27;20043;-66
2021/09/26 11:12:48;;;;;;;11.68;9.82;;;20.60;82.10;;;;;;5080544;28;20523;-67
2021/09/26 11:15:15;;;;;;;13.80;11.13;;;20.70;82.50;;;;;;5115941;27;20080;-68
2021/09/26 11:17:51;;;;;;;12.60;10.20;;;20.70;82.50;;;;;;5107726;27;20048;-68
2021/09/26 11:20:26;;;;;;;14.07;11.15;;;20.80;82.90;;;;;;5105447;27;20046;-67
2021/09/26 11:23:04;;;;;;;15.95;12.63;;;20.80;82.60;;;;;;5103805;27;20047;-68
2021/09/26 11:26:00;;;;;;;13.77;11.75;;;20.90;83.30;;;;;;5106595;27;20044;-66
2021/09/26 11:28:35;;;;;;;15.13;11.32;;;21.00;83.20;;;;;;5109580;27;20044;-67
2021/09/26 11:31:40;;;;;;;12.55;10.52;;;21.10;83.30;;;;;;5107439;27;20043;-68
2021/09/26 11:34:06;;;;;;;13.77;10.02;;;21.20;83.30;;;;;;5105875;27;20048;-67
2021/09/26 11:36:31;;;;;;;14.90;11.30;;;21.20;83.00;;;;;;5092735;27;20038;-67
2021/09/26 11:39:24;;;;;;;14.00;11.48;;;21.20;83.10;;;;;;5108004;27;20040;-67
2021/09/26 11:41:49;;;;;;;13.73;10.73;;;21.40;82.40;;;;;;5104875;27;20065;-66
2021/09/26 11:44:16;;;;;;;11.95;9.52;;;21.40;81.90;;;;;;5106438;27;20510;-67
2021/09/26 11:46:47;;;;;;;12.73;10.07;;;21.50;81.60;;;;;;5100989;27;20036;-68
2021/09/26 11:49:13;;;;;;;12.45;10.70;;;21.60;81.20;;;;;;5098257;27;20046;-68
2021/09/26 11:51:39;;;;;;;12.77;9.68;;;21.60;80.80;;;;;;5092312;27;20040;-68
2021/09/26 11:54:06;;;;;;;14.30;10.38;;;21.50;81.10;;;;;;5105346;27;20089;-66
2021/09/26 11:56:37;;;;;;;11.70;9.43;;;21.50;80.80;;;;;;5103445;27;20047;-68
2021/09/26 11:59:07;;;;;;;12.25;9.57;;;21.50;81.20;;;;;;5108358;27;20040;-68
2021/09/26 12:01:42;;;;;;;12.05;9.27;;;21.40;81.20;;;;;;5111895;27;20045;-67
2021/09/26 12:04:17;;;;;;;11.15;9.55;;;21.40;81.30;;;;;;5109046;27;20118;-66
2021/09/26 12:06:49;;;;;;;11.82;9.65;;;21.30;81.00;;;;;;5105868;27;20047;-66
2021/09/26 12:09:37;;;;;;;11.30;9.10;;;21.20;81.10;;;;;;5108447;27;20122;-66
2021/09/26 12:12:25;;;;;;;15.23;10.43;;;21.20;81.50;;;;;;5109228;27;20061;-66
2021/09/26 12:15:03;;;;;;;13.30;9.45;;;21.20;81.60;;;;;;5106592;27;20044;-66
2021/09/26 12:17:30;;;;;;;12.57;10.73;;;21.10;81.90;;;;;;5109043;27;20126;-66
2021/09/26 12:19:58;;;;;;;12.68;9.50;;;21.00;82.20;;;;;;5097963;27;20043;-67
2021/09/26 12:22:26;;;;;;;11.27;9.40;;;21.10;82.90;;;;;;5111998;27;20064;-67
2021/09/26 12:24:54;;;;;;;10.82;9.52;;;21.20;83.20;;;;;;5104850;27;20031;-66
2021/09/26 12:27:29;;;;;;;11.95;9.52;;;21.40;83.10;;;;;;5107597;27;20073;-67
2021/09/26 12:29:59;;;;;;;12.30;8.52;;;21.60;82.70;;;;;;5105289;27;20131;-67
2021/09/26 12:32:29;;;;;;;12.35;8.23;;;21.70;82.50;;;;;;5106357;27;20035;-67
2021/09/26 12:34:57;;;;;;;12.73;8.95;;;21.80;82.00;;;;;;5106158;27;20044;-67
2021/09/26 12:37:27;;;;;;;10.93;8.45;;;21.80;82.20;;;;;;5108157;27;20128;-67
2021/09/26 12:39:56;;;;;;;12.32;8.63;;;21.80;82.40;;;;;;5108437;27;21976;-67